createdAt,value
2023-02-05T00:01:34.969Z,1040.05
2023-02-05T00:03:50.585Z,1040.06
2023-02-05T00:06:04.180Z,1040.05
2023-02-05T00:08:19.780Z,1040.09
2023-02-05T00:10:35.467Z,1040.11
2023-02-05T00:12:51.072Z,1040.17
2023-02-05T00:15:06.025Z,1040.17
2023-02-05T00:17:18.172Z,1040.15
2023-02-05T00:19:31.891Z,1040.03
2023-02-05T00:21:45.415Z,1040.00
2023-02-05T00:24:01.003Z,1039.93
2023-02-05T00:26:16.857Z,1039.96
2023-02-05T00:28:35.149Z,1039.91
2023-02-05T00:30:53.317Z,1039.95
2023-02-05T00:33:11.001Z,1039.98
2023-02-05T00:35:29.792Z,1040.04
2023-02-05T00:37:44.858Z,1040.08
2023-02-05T00:40:02.695Z,1040.11
2023-02-05T00:42:21.547Z,1040.09
2023-02-05T00:44:36.377Z,1040.04
2023-02-05T00:46:51.913Z,1039.99
2023-02-05T00:49:09.361Z,1039.98
2023-02-05T00:51:25.847Z,1039.98
2023-02-05T00:53:41.760Z,1039.99
2023-02-05T00:55:58.334Z,1040.02
2023-02-05T00:58:18.983Z,1039.99
2023-02-05T01:00:30.753Z,1039.92
2023-02-05T01:02:48.776Z,1039.87
2023-02-05T01:05:06.788Z,1039.90
2023-02-05T01:07:22.444Z,1039.90
2023-02-05T01:09:37.963Z,1039.86
2023-02-05T01:11:51.078Z,1039.76
2023-02-05T01:14:06.650Z,1039.72
2023-02-05T01:16:25.251Z,1039.70
2023-02-05T01:18:42.910Z,1039.63
2023-02-05T01:21:01.205Z,1039.58
2023-02-05T01:23:16.551Z,1039.60
2023-02-05T01:25:35.659Z,1039.52
2023-02-05T01:27:50.383Z,1039.54
2023-02-05T01:30:05.835Z,1039.50
2023-02-05T01:32:24.034Z,1039.52
2023-02-05T01:34:38.464Z,1039.50
2023-02-05T01:36:54.098Z,1039.48
2023-02-05T01:39:13.083Z,1039.41
2023-02-05T01:41:27.882Z,1039.38
2023-02-05T01:43:45.031Z,1039.35
2023-02-05T01:45:59.122Z,1039.35
2023-02-05T01:48:14.606Z,1039.35
2023-02-05T01:50:32.695Z,1039.27
2023-02-05T01:52:46.319Z,1039.24
2023-02-05T01:55:00.106Z,1039.25
2023-02-05T01:57:15.505Z,1039.26
2023-02-05T01:59:31.634Z,1039.25
2023-02-05T02:01:46.669Z,1039.23
2023-02-05T02:04:01.199Z,1039.23
2023-02-05T02:06:15.898Z,1039.15
2023-02-05T02:08:29.794Z,1039.10
2023-02-05T02:10:45.253Z,1039.00
2023-02-05T02:13:00.588Z,1038.97
2023-02-05T02:15:17.221Z,1038.95
2023-02-05T02:17:30.870Z,1038.92
2023-02-05T02:19:46.365Z,1038.88
2023-02-05T02:22:02.011Z,1038.85
2023-02-05T02:24:20.066Z,1038.79
2023-02-05T02:26:33.835Z,1038.81
2023-02-05T02:28:49.343Z,1038.81
2023-02-05T02:31:07.433Z,1038.83
2023-02-05T02:33:23.027Z,1038.80
2023-02-05T02:35:41.207Z,1038.71
2023-02-05T02:37:59.236Z,1038.66
2023-02-05T02:40:17.301Z,1038.60
2023-02-05T02:42:32.896Z,1038.58
2023-02-05T02:44:51.033Z,1038.60
2023-02-05T02:47:05.564Z,1038.62
2023-02-05T02:49:19.209Z,1038.64
2023-02-05T02:51:34.863Z,1038.67
2023-02-05T02:53:52.848Z,1038.69
2023-02-05T02:56:11.027Z,1038.70
2023-02-05T02:58:26.627Z,1038.72
2023-02-05T03:00:42.205Z,1038.65
2023-02-05T03:02:57.746Z,1038.69
2023-02-05T03:05:15.919Z,1038.68
2023-02-05T03:07:31.401Z,1038.72
2023-02-05T03:09:49.516Z,1038.73
2023-02-05T03:12:05.144Z,1038.70
2023-02-05T03:14:20.653Z,1038.65
2023-02-05T03:16:39.690Z,1038.68
2023-02-05T03:18:53.360Z,1038.72
2023-02-05T03:21:09.033Z,1038.71
2023-02-05T03:23:22.591Z,1038.67
2023-02-05T03:25:38.255Z,1038.66
2023-02-05T03:27:53.949Z,1038.62
2023-02-05T03:30:10.038Z,1038.56
2023-02-05T03:32:24.993Z,1038.53
2023-02-05T03:34:40.620Z,1038.53
2023-02-05T03:36:56.171Z,1038.52
2023-02-05T03:39:11.757Z,1038.54
2023-02-05T03:41:30.323Z,1038.54
2023-02-05T03:43:45.694Z,1038.57
2023-02-05T03:46:03.782Z,1038.59
2023-02-05T03:48:18.158Z,1038.59
2023-02-05T03:50:36.217Z,1038.56
2023-02-05T03:52:51.796Z,1038.57
2023-02-05T03:55:07.414Z,1038.59
2023-02-05T03:57:26.601Z,1038.60
2023-02-05T03:59:42.199Z,1038.57
2023-02-05T04:02:00.231Z,1038.57
2023-02-05T04:04:15.774Z,1038.63
2023-02-05T04:06:33.893Z,1038.61
2023-02-05T04:08:49.604Z,1038.65
2023-02-05T04:11:03.158Z,1038.69
2023-02-05T04:13:21.445Z,1038.73
2023-02-05T04:15:36.750Z,1038.80
2023-02-05T04:17:55.085Z,1038.76
2023-02-05T04:20:10.480Z,1038.72
2023-02-05T04:22:26.150Z,1038.73
2023-02-05T04:24:44.472Z,1038.77
2023-02-05T04:27:02.576Z,1038.75
2023-02-05T04:29:20.791Z,1038.72
2023-02-05T04:31:38.912Z,1038.67
2023-02-05T04:33:58.742Z,1038.71
2023-02-05T04:36:13.424Z,1038.72
2023-02-05T04:38:27.045Z,1038.76
2023-02-05T04:40:45.701Z,1038.67
2023-02-05T04:43:03.368Z,1038.69
2023-02-05T04:45:19.703Z,1038.69
2023-02-05T04:47:34.533Z,1038.72
2023-02-05T04:49:50.245Z,1038.69
2023-02-05T04:52:05.806Z,1038.66
2023-02-05T04:54:21.221Z,1038.60
2023-02-05T04:56:39.885Z,1038.55
2023-02-05T04:58:55.813Z,1038.61
2023-02-05T05:01:11.668Z,1038.62
2023-02-05T05:03:24.126Z,1038.60
2023-02-05T05:05:38.713Z,1038.58
2023-02-05T05:07:53.449Z,1038.59
2023-02-05T05:10:06.946Z,1038.60
2023-02-05T05:12:25.193Z,1038.57
2023-02-05T05:14:43.840Z,1038.60
2023-02-05T05:16:56.789Z,1038.59
2023-02-05T05:19:10.732Z,1038.50
2023-02-05T05:21:26.208Z,1038.55
2023-02-05T05:23:45.476Z,1038.57
2023-02-05T05:26:02.920Z,1038.62
2023-02-05T05:28:17.761Z,1038.60
2023-02-05T05:30:36.430Z,1038.67
2023-02-05T05:32:50.913Z,1038.68
2023-02-05T05:35:06.846Z,1038.70
2023-02-05T05:37:23.177Z,1038.66
2023-02-05T05:39:41.416Z,1038.63
2023-02-05T05:42:00.074Z,1038.58
2023-02-05T05:44:14.854Z,1038.58
2023-02-05T05:46:30.775Z,1038.65
2023-02-05T05:48:47.921Z,1038.69
2023-02-05T05:51:04.516Z,1038.60
2023-02-05T05:53:17.595Z,1038.54
2023-02-05T05:55:33.570Z,1038.51
2023-02-05T05:57:47.726Z,1038.58
2023-02-05T06:00:07.718Z,1038.55
2023-02-05T06:02:22.450Z,1038.59
2023-02-05T06:04:38.363Z,1038.63
2023-02-05T06:06:57.108Z,1038.63
2023-02-05T06:09:14.298Z,1038.57
2023-02-05T06:11:29.842Z,1038.51
2023-02-05T06:13:48.229Z,1038.41
2023-02-05T06:16:06.739Z,1038.34
2023-02-05T06:18:23.733Z,1038.45
2023-02-05T06:20:40.039Z,1038.42
2023-02-05T06:22:58.131Z,1038.46
2023-02-05T06:25:13.778Z,1038.52
2023-02-05T06:27:31.908Z,1038.57
2023-02-05T06:29:47.492Z,1038.64
2023-02-05T06:32:03.242Z,1038.62
2023-02-05T06:34:18.640Z,1038.54
2023-02-05T06:36:31.758Z,1038.56
2023-02-05T06:38:49.852Z,1038.57
2023-02-05T06:41:07.943Z,1038.60
2023-02-05T06:43:22.596Z,1038.57
2023-02-05T06:45:40.599Z,1038.58
2023-02-05T06:47:59.183Z,1038.57
2023-02-05T06:50:14.316Z,1038.55
2023-02-05T06:52:32.994Z,1038.59
2023-02-05T06:54:47.060Z,1038.61
2023-02-05T06:57:05.245Z,1038.66
2023-02-05T06:59:20.700Z,1038.60
2023-02-05T07:01:39.437Z,1038.56
2023-02-05T07:03:54.430Z,1038.55
2023-02-05T07:06:09.963Z,1038.56
2023-02-05T07:08:25.669Z,1038.54
2023-02-05T07:10:41.214Z,1038.53
2023-02-05T07:12:57.728Z,1038.48
2023-02-05T07:15:12.406Z,1038.42
2023-02-05T07:17:27.977Z,1038.39
2023-02-05T07:19:43.123Z,1038.36
2023-02-05T07:21:59.641Z,1038.33
2023-02-05T07:24:16.957Z,1038.28
2023-02-05T07:26:30.423Z,1038.26
2023-02-05T07:28:48.534Z,1038.23
2023-02-05T07:31:06.686Z,1038.20
2023-02-05T07:33:21.284Z,1038.20
2023-02-05T07:43:42.646Z,1038.33
2023-02-05T07:45:55.182Z,1038.32
2023-02-05T07:48:09.129Z,1038.32
2023-02-05T07:50:25.718Z,1038.25
2023-02-05T07:52:44.093Z,1038.20
2023-02-05T07:55:01.907Z,1038.23
2023-02-05T07:57:17.526Z,1038.25
2023-02-05T07:59:33.571Z,1038.19
2023-02-05T08:01:48.730Z,1038.09
2023-02-05T08:04:04.656Z,1037.99
2023-02-05T08:06:19.956Z,1038.06
2023-02-05T08:08:36.979Z,1038.09
2023-02-05T08:10:57.244Z,1038.05
2023-02-05T08:13:12.743Z,1037.98
2023-02-05T08:15:30.899Z,1037.96
2023-02-05T08:17:45.560Z,1037.94
2023-02-05T08:20:01.186Z,1037.90
2023-02-05T08:22:19.216Z,1037.83
2023-02-05T08:24:34.726Z,1037.77
2023-02-05T08:26:53.200Z,1037.77
2023-02-05T08:29:05.934Z,1037.82
2023-02-05T08:31:23.433Z,1037.93
2023-02-05T08:33:39.653Z,1037.91
2023-02-05T08:35:57.690Z,1037.99
2023-02-05T08:38:13.288Z,1037.98
2023-02-05T08:40:31.486Z,1037.96
2023-02-05T08:42:47.034Z,1037.92
2023-02-05T08:45:05.090Z,1037.86
2023-02-05T08:47:23.994Z,1037.85
2023-02-05T08:49:41.509Z,1037.84
2023-02-05T08:51:59.360Z,1037.85
2023-02-05T08:54:19.966Z,1037.81
2023-02-05T08:56:40.922Z,1037.84
2023-02-05T08:58:56.220Z,1037.85
2023-02-05T09:01:14.426Z,1037.81
2023-02-05T09:03:29.855Z,1037.79
2023-02-05T09:05:47.917Z,1037.81
2023-02-05T09:08:06.252Z,1037.92
2023-02-05T09:10:24.103Z,1037.90
2023-02-05T09:12:39.706Z,1037.93
2023-02-05T09:14:57.792Z,1037.91
2023-02-05T09:17:13.764Z,1037.91
2023-02-05T09:19:29.248Z,1037.97
2023-02-05T09:21:47.343Z,1037.97
2023-02-05T09:24:00.438Z,1038.00
2023-02-05T09:26:14.026Z,1037.93
2023-02-05T09:28:32.137Z,1037.90
2023-02-05T09:30:50.472Z,1037.92
2023-02-05T09:33:05.890Z,1037.93
2023-02-05T09:35:21.396Z,1037.89
2023-02-05T09:37:36.993Z,1038.01
2023-02-05T09:40:19.641Z,1038.04
2023-02-05T09:40:53.535Z,1038.02
2023-02-05T09:43:07.478Z,1037.98
2023-02-05T09:45:28.542Z,1037.96
2023-02-05T09:46:26.210Z,1037.94
2023-02-05T09:48:40.741Z,1037.90
2023-02-05T09:50:57.936Z,1037.85
2023-02-05T09:53:11.968Z,1037.80
2023-02-05T09:55:30.104Z,1037.76
2023-02-05T09:57:50.791Z,1037.79
2023-02-05T10:00:09.129Z,1037.80
2023-02-05T10:02:29.357Z,1037.74
2023-02-05T10:04:47.463Z,1037.74
2023-02-05T10:07:10.684Z,1037.71
2023-02-05T10:09:31.120Z,1037.66
2023-02-05T10:11:49.614Z,1037.63
2023-02-05T10:14:10.673Z,1037.63
2023-02-05T10:16:27.200Z,1037.64
2023-02-05T10:18:49.684Z,1037.70
2023-02-05T10:21:07.491Z,1037.69
2023-02-05T10:23:23.442Z,1037.65
2023-02-05T10:26:44.206Z,1037.57
2023-02-05T10:29:02.759Z,1037.54
2023-02-05T10:31:20.984Z,1037.50
2023-02-05T10:34:32.872Z,1037.40
2023-02-05T10:37:50.067Z,1037.32
2023-02-05T10:41:46.429Z,1037.28
2023-02-05T10:47:47.163Z,1037.22
2023-02-05T10:52:27.148Z,1037.15
2023-02-05T10:56:08.340Z,1037.06
2023-02-05T10:59:56.867Z,1037.07
2023-02-05T11:06:02.013Z,1037.17
2023-02-05T11:08:38.646Z,1037.22
2023-02-05T11:11:46.664Z,1037.28
2023-02-05T11:16:09.656Z,1037.28
2023-02-05T11:18:29.479Z,1037.23
2023-02-05T11:20:45.869Z,1037.22
2023-02-05T11:23:08.127Z,1037.17
2023-02-05T11:25:28.786Z,1037.15
2023-02-05T11:27:44.018Z,1037.13
2023-02-05T11:30:03.416Z,1037.13
2023-02-05T11:32:45.081Z,1037.21
2023-02-05T11:35:05.543Z,1037.18
2023-02-05T11:37:23.634Z,1037.11
2023-02-05T11:39:40.312Z,1037.06
2023-02-05T11:41:56.825Z,1037.00
2023-02-05T11:44:15.597Z,1036.97
2023-02-05T11:45:15.602Z,1037.04
2023-02-05T11:47:30.801Z,1036.97
2023-02-05T11:49:59.779Z,1037.00
2023-02-05T12:03:40.956Z,1037.16
2023-02-05T12:06:01.890Z,1037.07
2023-02-05T12:08:20.012Z,1037.04
2023-02-05T12:58:59.003Z,1037.12
2023-02-05T14:04:54.624Z,1037.21
2023-02-05T14:10:15.964Z,1037.43
2023-02-05T14:18:48.716Z,1037.06
2023-02-05T14:21:07.689Z,1037.01
2023-02-05T14:23:28.002Z,1037.07
2023-02-05T14:28:46.838Z,1036.91
2023-02-05T14:33:30.745Z,1036.86
2023-02-05T14:36:50.280Z,1036.83
2023-02-05T14:39:08.726Z,1036.88
2023-02-05T14:42:06.879Z,1036.98
2023-02-05T14:44:27.068Z,1036.98
2023-02-05T14:49:09.409Z,1036.97
2023-02-05T14:56:01.897Z,1037.07
2023-02-05T14:59:05.439Z,1037.17
2023-02-05T15:27:22.258Z,1037.60
2023-02-05T15:29:20.025Z,1037.58
2023-02-05T15:35:39.569Z,1037.75
2023-02-05T15:38:25.537Z,1037.67
2023-02-05T15:41:05.017Z,1037.62
2023-02-05T15:57:29.564Z,1037.92
2023-02-05T16:02:17.947Z,1037.99
2023-02-05T16:04:41.635Z,1037.86
2023-02-05T16:06:57.004Z,1037.72
2023-02-05T16:08:49.995Z,1037.64
2023-02-05T16:11:20.675Z,1037.57
2023-02-05T16:13:20.002Z,1037.52
2023-02-05T16:15:35.229Z,1037.52
2023-02-05T16:17:49.248Z,1037.48
2023-02-05T16:20:01.403Z,1037.53
2023-02-05T16:22:17.968Z,1037.48
2023-02-05T16:24:34.493Z,1037.54
2023-02-05T16:26:52.576Z,1037.58
2023-02-05T16:29:20.165Z,1037.62
2023-02-05T16:30:09.154Z,1037.66
2023-02-05T16:32:26.382Z,1037.71
2023-02-05T16:34:46.862Z,1037.75
2023-02-05T16:37:02.468Z,1037.82
2023-02-05T16:39:17.034Z,1037.75
2023-02-05T16:41:35.172Z,1037.82
2023-02-05T16:43:53.208Z,1037.82
2023-02-05T16:46:06.878Z,1037.80
2023-02-05T16:48:20.559Z,1037.82
2023-02-05T16:50:35.294Z,1037.85
2023-02-05T16:52:50.601Z,1037.86
2023-02-05T16:55:04.195Z,1037.81
2023-02-05T16:57:20.713Z,1037.77
2023-02-05T16:59:38.836Z,1037.76
2023-02-05T17:01:52.550Z,1037.81
2023-02-05T17:04:08.041Z,1037.91
2023-02-05T17:06:23.670Z,1037.95
2023-02-05T17:08:39.194Z,1038.00
2023-02-05T17:10:54.836Z,1038.01
2023-02-05T17:13:10.385Z,1038.06
2023-02-05T17:15:26.048Z,1038.08
2023-02-05T17:17:41.585Z,1038.10
2023-02-05T17:19:53.662Z,1038.03
2023-02-05T17:22:09.299Z,1038.03
2023-02-05T17:24:24.919Z,1038.12
2023-02-05T17:26:40.578Z,1038.14
2023-02-05T17:28:55.066Z,1038.17
2023-02-05T17:31:10.600Z,1038.20
2023-02-05T17:33:26.248Z,1038.23
2023-02-05T17:35:39.276Z,1038.22
2023-02-05T17:37:52.873Z,1038.24
2023-02-05T17:40:06.471Z,1038.28
2023-02-05T17:42:22.027Z,1038.34
2023-02-05T17:44:37.657Z,1038.32
2023-02-05T17:46:50.733Z,1038.26
2023-02-05T17:49:07.042Z,1038.27
2023-02-05T17:51:21.950Z,1038.38
2023-02-05T17:53:35.511Z,1038.35
2023-02-05T17:55:51.251Z,1038.44
2023-02-05T17:58:05.775Z,1038.53
2023-02-05T18:00:18.802Z,1038.63
2023-02-05T18:02:34.425Z,1038.66
2023-02-05T18:04:50.113Z,1038.67
2023-02-05T18:07:05.582Z,1038.78
2023-02-05T18:09:20.202Z,1038.76
2023-02-05T18:11:36.613Z,1038.77
2023-02-05T18:13:51.372Z,1038.79
2023-02-05T18:16:10.783Z,1038.74
2023-02-05T18:18:22.649Z,1038.81
2023-02-05T18:20:36.173Z,1038.84
2023-02-05T18:22:47.834Z,1038.86
2023-02-05T18:25:05.955Z,1038.78
2023-02-05T18:27:27.388Z,1038.79
2023-02-05T18:29:42.154Z,1038.88
2023-02-05T18:31:55.706Z,1038.98
2023-02-05T18:34:09.306Z,1039.00
2023-02-05T18:36:25.971Z,1038.99
2023-02-05T18:38:36.501Z,1039.02
2023-02-05T18:40:52.099Z,1038.98
2023-02-05T18:43:09.158Z,1038.98
2023-02-05T18:45:23.299Z,1038.95
2023-02-05T18:47:40.948Z,1038.95
2023-02-05T18:53:53.953Z,1039.02
2023-02-05T18:57:25.700Z,1039.04
2023-02-05T19:00:12.271Z,1039.02
2023-02-05T19:02:02.072Z,1039.13
2023-02-05T19:04:21.853Z,1039.21
2023-02-05T19:06:36.925Z,1039.25
2023-02-05T19:08:57.508Z,1039.33
2023-02-05T19:11:14.607Z,1039.35
2023-02-05T19:13:45.121Z,1039.33
2023-02-05T19:18:35.070Z,1039.24
2023-02-05T19:22:28.765Z,1039.16
2023-02-05T19:24:24.818Z,1039.08
2023-02-05T19:26:36.488Z,1039.05
2023-02-05T19:28:54.581Z,1038.93
2023-02-05T19:31:15.277Z,1038.85
2023-02-05T19:33:35.745Z,1038.80
2023-02-05T19:35:54.685Z,1038.85
2023-02-05T19:40:56.724Z,1038.92
2023-02-05T20:00:17.853Z,1039.14
2023-02-05T20:03:21.434Z,1039.07
2023-02-05T20:05:18.267Z,1038.99
2023-02-05T20:07:17.133Z,1039.04
2023-02-05T20:09:26.777Z,1038.95
2023-02-05T20:11:40.291Z,1038.94
2023-02-05T20:13:58.213Z,1038.94
2023-02-05T20:16:10.063Z,1038.94
2023-02-05T20:18:28.055Z,1038.91
2023-02-05T20:20:43.658Z,1038.92
2023-02-05T20:23:13.280Z,1039.04
2023-02-05T20:25:30.775Z,1038.96
2023-02-05T20:27:47.935Z,1038.83
2023-02-05T20:30:06.941Z,1038.84
2023-02-05T20:32:51.786Z,1038.84
2023-02-05T20:34:48.253Z,1038.88
2023-02-05T20:36:56.235Z,1038.97
2023-02-05T20:39:11.922Z,1039.02
2023-02-05T20:41:29.007Z,1039.02
2023-02-05T20:43:43.033Z,1039.06
2023-02-05T20:46:01.177Z,1039.08
2023-02-05T20:48:19.276Z,1039.19
2023-02-05T20:58:58.146Z,1039.46
2023-02-05T21:00:47.473Z,1039.47
2023-02-05T21:03:02.234Z,1039.55
2023-02-05T21:05:59.702Z,1039.66
2023-02-05T21:07:53.788Z,1039.67
2023-02-05T21:10:13.494Z,1039.69
2023-02-05T21:12:32.086Z,1039.70
2023-02-05T21:15:10.045Z,1039.68
2023-02-05T21:17:12.992Z,1039.66
2023-02-05T21:19:46.621Z,1039.71
2023-02-05T21:21:44.452Z,1039.81
2023-02-05T21:24:23.326Z,1039.82
2023-02-05T21:26:34.737Z,1039.81
2023-02-05T21:28:33.457Z,1039.77
